sensor_id;sensor_type;location;lat;lon;timestamp;pressure;altitude;pressure_sealevel;temperature;humidity
6204;BME280;3135;42.602;23.468;2023-04-15T00:00:03;91808.66;;;4.36;88.33
6204;BME280;3135;42.602;23.468;2023-04-15T00:02:28;91806.34;;;4.64;86.91
6204;BME280;3135;42.602;23.468;2023-04-15T00:04:54;91798.13;;;4.65;86.06
6204;BME280;3135;42.602;23.468;2023-04-15T00:07:19;91789.16;;;4.61;85.91
6204;BME280;3135;42.602;23.468;2023-04-15T00:09:45;91731.72;;;4.32;86.39
6204;BME280;3135;42.602;23.468;2023-04-15T00:12:11;91816.72;;;4.89;86.11
6204;BME280;3135;42.602;23.468;2023-04-15T00:14:36;91799.97;;;4.65;85.40
6204;BME280;3135;42.602;23.468;2023-04-15T00:17:03;91800.34;;;4.14;87.31
6204;BME280;3135;42.602;23.468;2023-04-15T00:19:29;91792.91;;;4.21;88.83
6204;BME280;3135;42.602;23.468;2023-04-15T00:21:55;91814.88;;;4.55;87.84
6204;BME280;3135;42.602;23.468;2023-04-15T00:24:21;91817.25;;;4.57;88.67
6204;BME280;3135;42.602;23.468;2023-04-15T00:26:47;91807.00;;;4.45;90.69
6204;BME280;3135;42.602;23.468;2023-04-15T00:29:13;91823.47;;;4.37;95.60
6204;BME280;3135;42.602;23.468;2023-04-15T00:31:39;91813.69;;;4.32;97.65
6204;BME280;3135;42.602;23.468;2023-04-15T00:34:06;91799.28;;;4.15;97.71
6204;BME280;3135;42.602;23.468;2023-04-15T00:36:32;91807.91;;;4.30;95.99
6204;BME280;3135;42.602;23.468;2023-04-15T00:38:59;91818.66;;;4.44;94.79
6204;BME280;3135;42.602;23.468;2023-04-15T00:41:24;91808.13;;;4.39;97.22
6204;BME280;3135;42.602;23.468;2023-04-15T00:43:50;91821.81;;;4.46;95.51
6204;BME280;3135;42.602;23.468;2023-04-15T00:46:16;91843.50;;;4.48;93.49
6204;BME280;3135;42.602;23.468;2023-04-15T00:48:45;91851.50;;;4.38;92.02
6204;BME280;3135;42.602;23.468;2023-04-15T00:51:11;91850.53;;;4.24;91.15
6204;BME280;3135;42.602;23.468;2023-04-15T00:53:36;91835.25;;;4.16;94.02
6204;BME280;3135;42.602;23.468;2023-04-15T00:56:01;91847.31;;;4.32;93.86
6204;BME280;3135;42.602;23.468;2023-04-15T00:58:27;91852.47;;;4.52;94.21
6204;BME280;3135;42.602;23.468;2023-04-15T01:00:54;91842.28;;;4.70;95.04
6204;BME280;3135;42.602;23.468;2023-04-15T01:03:20;91846.53;;;4.71;96.88
6204;BME280;3135;42.602;23.468;2023-04-15T01:05:46;91838.09;;;4.64;100.00
6204;BME280;3135;42.602;23.468;2023-04-15T01:08:11;91813.19;;;4.30;100.00
6204;BME280;3135;42.602;23.468;2023-04-15T01:10:37;91841.03;;;4.18;100.00
6204;BME280;3135;42.602;23.468;2023-04-15T01:13:03;91824.00;;;4.39;100.00
6204;BME280;3135;42.602;23.468;2023-04-15T01:15:29;91805.13;;;4.51;100.00
6204;BME280;3135;42.602;23.468;2023-04-15T01:17:57;91837.19;;;4.44;100.00
6204;BME280;3135;42.602;23.468;2023-04-15T01:20:23;91826.88;;;4.43;100.00
6204;BME280;3135;42.602;23.468;2023-04-15T01:22:49;91854.59;;;4.50;100.00
6204;BME280;3135;42.602;23.468;2023-04-15T01:25:18;91841.16;;;4.42;100.00
6204;BME280;3135;42.602;23.468;2023-04-15T01:27:44;91831.34;;;4.47;100.00
6204;BME280;3135;42.602;23.468;2023-04-15T01:30:10;91825.31;;;4.36;100.00
6204;BME280;3135;42.602;23.468;2023-04-15T01:32:36;91803.00;;;4.08;100.00
6204;BME280;3135;42.602;23.468;2023-04-15T01:35:01;91834.88;;;4.32;100.00
6204;BME280;3135;42.602;23.468;2023-04-15T01:37:27;91829.88;;;4.26;99.07
6204;BME280;3135;42.602;23.468;2023-04-15T01:39:52;91840.94;;;4.38;98.54
6204;BME280;3135;42.602;23.468;2023-04-15T01:42:19;91838.53;;;4.36;98.86
6204;BME280;3135;42.602;23.468;2023-04-15T01:44:45;91846.22;;;4.38;98.75
6204;BME280;3135;42.602;23.468;2023-04-15T01:47:10;91851.81;;;4.31;98.98
6204;BME280;3135;42.602;23.468;2023-04-15T01:49:36;91847.31;;;4.32;98.48
6204;BME280;3135;42.602;23.468;2023-04-15T01:52:02;91846.28;;;4.23;100.00
6204;BME280;3135;42.602;23.468;2023-04-15T01:54:27;91831.34;;;4.03;100.00
6204;BME280;3135;42.602;23.468;2023-04-15T01:56:52;91837.22;;;3.90;100.00
6204;BME280;3135;42.602;23.468;2023-04-15T01:59:18;91838.47;;;4.02;100.00
6204;BME280;3135;42.602;23.468;2023-04-15T02:01:43;91841.06;;;4.13;100.00
6204;BME280;3135;42.602;23.468;2023-04-15T02:04:11;91820.94;;;4.17;100.00
6204;BME280;3135;42.602;23.468;2023-04-15T02:06:43;91834.19;;;4.12;100.00
6204;BME280;3135;42.602;23.468;2023-04-15T02:09:09;91833.50;;;3.96;100.00
6204;BME280;3135;42.602;23.468;2023-04-15T02:11:35;91802.22;;;4.08;100.00
6204;BME280;3135;42.602;23.468;2023-04-15T02:14:01;91813.41;;;4.39;100.00
6204;BME280;3135;42.602;23.468;2023-04-15T02:16:28;91810.19;;;4.47;100.00
6204;BME280;3135;42.602;23.468;2023-04-15T02:18:53;91802.63;;;4.65;100.00
6204;BME280;3135;42.602;23.468;2023-04-15T02:21:19;91803.81;;;4.82;100.00
6204;BME280;3135;42.602;23.468;2023-04-15T02:23:44;91806.06;;;4.99;100.00
6204;BME280;3135;42.602;23.468;2023-04-15T02:26:12;91811.66;;;5.22;100.00
6204;BME280;3135;42.602;23.468;2023-04-15T02:28:37;91818.94;;;5.35;100.00
6204;BME280;3135;42.602;23.468;2023-04-15T02:31:06;91820.97;;;5.43;100.00
6204;BME280;3135;42.602;23.468;2023-04-15T02:33:32;91821.09;;;5.57;100.00
6204;BME280;3135;42.602;23.468;2023-04-15T02:35:58;91820.38;;;5.51;100.00
6204;BME280;3135;42.602;23.468;2023-04-15T02:38:23;91809.94;;;5.07;100.00
6204;BME280;3135;42.602;23.468;2023-04-15T02:40:49;91811.41;;;4.94;100.00
6204;BME280;3135;42.602;23.468;2023-04-15T02:43:15;91817.94;;;5.02;100.00
6204;BME280;3135;42.602;23.468;2023-04-15T02:45:42;91823.13;;;5.12;100.00
6204;BME280;3135;42.602;23.468;2023-04-15T02:48:08;91785.56;;;4.81;100.00
6204;BME280;3135;42.602;23.468;2023-04-15T02:50:33;91788.53;;;5.03;100.00
6204;BME280;3135;42.602;23.468;2023-04-15T02:52:59;91806.91;;;4.95;100.00
6204;BME280;3135;42.602;23.468;2023-04-15T02:55:25;91801.66;;;4.84;100.00
6204;BME280;3135;42.602;23.468;2023-04-15T02:57:51;91821.69;;;4.96;100.00
6204;BME280;3135;42.602;23.468;2023-04-15T03:00:16;91811.84;;;5.01;100.00
6204;BME280;3135;42.602;23.468;2023-04-15T03:02:42;91788.47;;;4.79;100.00
6204;BME280;3135;42.602;23.468;2023-04-15T03:05:13;91799.44;;;4.97;100.00
6204;BME280;3135;42.602;23.468;2023-04-15T03:07:38;91807.19;;;4.88;100.00
6204;BME280;3135;42.602;23.468;2023-04-15T03:10:06;91793.63;;;4.66;100.00
6204;BME280;3135;42.602;23.468;2023-04-15T03:12:32;91809.66;;;4.79;100.00
6204;BME280;3135;42.602;23.468;2023-04-15T03:14:57;91787.19;;;4.77;100.00
6204;BME280;3135;42.602;23.468;2023-04-15T03:17:22;91810.59;;;4.94;100.00
6204;BME280;3135;42.602;23.468;2023-04-15T03:19:49;91811.09;;;4.27;100.00
6204;BME280;3135;42.602;23.468;2023-04-15T03:22:14;91814.91;;;4.11;100.00
6204;BME280;3135;42.602;23.468;2023-04-15T03:24:40;91837.19;;;3.95;100.00
6204;BME280;3135;42.602;23.468;2023-04-15T03:27:05;91840.22;;;3.73;100.00
6204;BME280;3135;42.602;23.468;2023-04-15T03:29:32;91845.72;;;3.76;100.00
6204;BME280;3135;42.602;23.468;2023-04-15T03:31:57;91868.50;;;3.62;100.00
6204;BME280;3135;42.602;23.468;2023-04-15T03:34:23;91854.53;;;3.51;100.00
6204;BME280;3135;42.602;23.468;2023-04-15T03:36:48;91831.31;;;3.43;100.00
6204;BME280;3135;42.602;23.468;2023-04-15T03:39:14;91867.97;;;3.65;100.00
6204;BME280;3135;42.602;23.468;2023-04-15T03:41:40;91868.72;;;3.71;100.00
6204;BME280;3135;42.602;23.468;2023-04-15T03:44:05;91878.19;;;3.87;100.00
6204;BME280;3135;42.602;23.468;2023-04-15T03:46:30;91854.66;;;3.85;100.00
6204;BME280;3135;42.602;23.468;2023-04-15T03:48:56;91867.59;;;3.97;100.00
6204;BME280;3135;42.602;23.468;2023-04-15T03:51:21;91886.00;;;4.13;100.00
6204;BME280;3135;42.602;23.468;2023-04-15T03:53:47;91893.25;;;3.92;100.00
6204;BME280;3135;42.602;23.468;2023-04-15T03:56:12;91879.63;;;3.54;100.00
6204;BME280;3135;42.602;23.468;2023-04-15T03:58:37;91890.41;;;3.73;100.00
6204;BME280;3135;42.602;23.468;2023-04-15T04:01:03;91864.00;;;3.73;100.00
6204;BME280;3135;42.602;23.468;2023-04-15T04:03:28;91850.19;;;3.81;100.00
6204;BME280;3135;42.602;23.468;2023-04-15T04:05:54;91878.94;;;3.98;100.00
6204;BME280;3135;42.602;23.468;2023-04-15T04:08:19;91853.66;;;3.81;100.00
6204;BME280;3135;42.602;23.468;2023-04-15T04:10:45;91878.59;;;4.20;100.00
6204;BME280;3135;42.602;23.468;2023-04-15T04:13:11;91886.25;;;4.16;100.00
6204;BME280;3135;42.602;23.468;2023-04-15T04:15:36;91869.13;;;4.03;100.00
6204;BME280;3135;42.602;23.468;2023-04-15T04:18:02;91867.13;;;3.75;100.00
6204;BME280;3135;42.602;23.468;2023-04-15T04:20:27;91876.91;;;3.79;100.00
6204;BME280;3135;42.602;23.468;2023-04-15T04:22:53;91887.63;;;4.03;100.00
6204;BME280;3135;42.602;23.468;2023-04-15T04:25:18;91887.06;;;4.17;100.00
6204;BME280;3135;42.602;23.468;2023-04-15T04:27:43;91894.16;;;4.26;100.00
6204;BME280;3135;42.602;23.468;2023-04-15T04:30:10;91892.66;;;4.10;100.00
6204;BME280;3135;42.602;23.468;2023-04-15T04:32:36;91884.72;;;4.10;100.00
6204;BME280;3135;42.602;23.468;2023-04-15T04:35:02;91902.06;;;4.26;100.00
6204;BME280;3135;42.602;23.468;2023-04-15T04:37:28;91876.41;;;4.27;100.00
6204;BME280;3135;42.602;23.468;2023-04-15T04:39:53;91881.69;;;4.32;100.00
6204;BME280;3135;42.602;23.468;2023-04-15T04:42:18;91889.44;;;4.63;100.00
6204;BME280;3135;42.602;23.468;2023-04-15T04:44:44;91882.09;;;4.54;100.00
6204;BME280;3135;42.602;23.468;2023-04-15T04:47:09;91901.91;;;4.57;100.00
6204;BME280;3135;42.602;23.468;2023-04-15T04:49:35;91896.25;;;4.74;100.00
6204;BME280;3135;42.602;23.468;2023-04-15T04:52:01;91892.53;;;4.75;100.00
6204;BME280;3135;42.602;23.468;2023-04-15T04:54:26;91906.38;;;5.01;100.00
6204;BME280;3135;42.602;23.468;2023-04-15T04:56:52;91894.97;;;5.05;100.00
6204;BME280;3135;42.602;23.468;2023-04-15T04:59:17;91909.38;;;5.23;100.00
6204;BME280;3135;42.602;23.468;2023-04-15T05:01:43;91920.38;;;5.35;100.00
6204;BME280;3135;42.602;23.468;2023-04-15T05:04:08;91928.72;;;5.53;100.00
6204;BME280;3135;42.602;23.468;2023-04-15T05:06:33;91939.22;;;5.63;100.00
6204;BME280;3135;42.602;23.468;2023-04-15T05:09:01;91911.75;;;5.25;100.00
6204;BME280;3135;42.602;23.468;2023-04-15T05:11:27;91912.91;;;5.13;100.00
6204;BME280;3135;42.602;23.468;2023-04-15T05:13:52;91921.66;;;5.43;100.00
6204;BME280;3135;42.602;23.468;2023-04-15T05:16:18;91930.44;;;5.68;100.00
6204;BME280;3135;42.602;23.468;2023-04-15T05:18:44;91947.84;;;5.79;100.00
6204;BME280;3135;42.602;23.468;2023-04-15T05:21:10;91929.88;;;5.71;100.00
6204;BME280;3135;42.602;23.468;2023-04-15T05:23:35;91951.44;;;5.88;100.00
6204;BME280;3135;42.602;23.468;2023-04-15T05:26:02;91946.13;;;5.88;100.00
6204;BME280;3135;42.602;23.468;2023-04-15T05:28:27;91963.22;;;5.77;100.00
6204;BME280;3135;42.602;23.468;2023-04-15T05:30:53;91970.63;;;5.80;100.00
6204;BME280;3135;42.602;23.468;2023-04-15T05:33:19;91967.31;;;5.64;100.00
6204;BME280;3135;42.602;23.468;2023-04-15T05:35:44;91974.75;;;5.62;100.00
6204;BME280;3135;42.602;23.468;2023-04-15T05:38:10;91962.00;;;5.64;100.00
6204;BME280;3135;42.602;23.468;2023-04-15T05:40:35;91963.56;;;5.36;100.00
6204;BME280;3135;42.602;23.468;2023-04-15T05:47:43;91958.38;;;5.55;100.00
6204;BME280;3135;42.602;23.468;2023-04-15T05:50:09;91970.16;;;5.73;100.00
6204;BME280;3135;42.602;23.468;2023-04-15T05:52:34;91973.94;;;5.96;100.00
6204;BME280;3135;42.602;23.468;2023-04-15T05:55:00;91957.91;;;6.06;100.00
6204;BME280;3135;42.602;23.468;2023-04-15T05:57:25;91949.91;;;6.11;100.00
6204;BME280;3135;42.602;23.468;2023-04-15T05:59:50;91971.22;;;6.49;100.00
6204;BME280;3135;42.602;23.468;2023-04-15T06:02:17;91991.59;;;6.53;100.00
6204;BME280;3135;42.602;23.468;2023-04-15T06:04:42;91985.13;;;6.64;100.00
6204;BME280;3135;42.602;23.468;2023-04-15T06:07:08;91976.00;;;6.71;100.00
6204;BME280;3135;42.602;23.468;2023-04-15T06:09:33;91992.19;;;6.93;99.47
6204;BME280;3135;42.602;23.468;2023-04-15T06:11:59;91990.72;;;7.01;100.00
6204;BME280;3135;42.602;23.468;2023-04-15T06:14:26;91993.06;;;7.07;99.31
6204;BME280;3135;42.602;23.468;2023-04-15T06:16:51;91984.00;;;7.27;98.19
6204;BME280;3135;42.602;23.468;2023-04-15T06:19:16;91987.66;;;7.31;96.36
6204;BME280;3135;42.602;23.468;2023-04-15T06:21:43;91993.16;;;7.54;98.90
6204;BME280;3135;42.602;23.468;2023-04-15T06:24:08;91988.72;;;7.49;93.24
6204;BME280;3135;42.602;23.468;2023-04-15T06:26:34;91996.84;;;7.58;93.74
6204;BME280;3135;42.602;23.468;2023-04-15T06:28:59;91999.31;;;7.68;94.28
6204;BME280;3135;42.602;23.468;2023-04-15T06:31:25;91996.50;;;7.78;96.90
6204;BME280;3135;42.602;23.468;2023-04-15T06:33:50;92010.06;;;7.96;93.75
6204;BME280;3135;42.602;23.468;2023-04-15T06:36:16;91955.97;;;7.54;91.82
6204;BME280;3135;42.602;23.468;2023-04-15T06:38:41;92013.25;;;8.25;91.56
6204;BME280;3135;42.602;23.468;2023-04-15T06:41:07;92000.19;;;8.42;89.01
6204;BME280;3135;42.602;23.468;2023-04-15T06:43:32;92000.38;;;8.60;89.45
6204;BME280;3135;42.602;23.468;2023-04-15T06:45:58;92018.66;;;8.80;87.32
6204;BME280;3135;42.602;23.468;2023-04-15T06:48:23;92019.53;;;8.76;86.16
6204;BME280;3135;42.602;23.468;2023-04-15T06:50:49;92015.28;;;8.88;87.23
6204;BME280;3135;42.602;23.468;2023-04-15T06:53:14;92016.84;;;9.03;87.29
6204;BME280;3135;42.602;23.468;2023-04-15T06:55:40;91974.63;;;8.83;86.59
6204;BME280;3135;42.602;23.468;2023-04-15T06:58:06;92000.34;;;9.15;85.74
6204;BME280;3135;42.602;23.468;2023-04-15T07:00:31;92032.34;;;9.51;84.25
6204;BME280;3135;42.602;23.468;2023-04-15T07:02:58;92029.69;;;9.51;85.23
6204;BME280;3135;42.602;23.468;2023-04-15T07:05:28;92042.44;;;9.77;84.12
6204;BME280;3135;42.602;23.468;2023-04-15T07:07:53;92040.13;;;9.61;82.59
6204;BME280;3135;42.602;23.468;2023-04-15T07:10:19;92033.34;;;9.78;82.66
6204;BME280;3135;42.602;23.468;2023-04-15T07:12:45;92036.00;;;9.78;81.67
6204;BME280;3135;42.602;23.468;2023-04-15T07:15:10;92033.56;;;9.67;82.61
6204;BME280;3135;42.602;23.468;2023-04-15T07:17:36;92054.25;;;10.07;80.38
6204;BME280;3135;42.602;23.468;2023-04-15T07:20:02;92046.19;;;10.20;80.28
6204;BME280;3135;42.602;23.468;2023-04-15T07:22:29;92027.63;;;10.15;79.65
6204;BME280;3135;42.602;23.468;2023-04-15T07:24:54;92039.06;;;9.85;79.46
6204;BME280;3135;42.602;23.468;2023-04-15T07:27:20;92048.75;;;10.03;80.82
6204;BME280;3135;42.602;23.468;2023-04-15T07:29:45;92042.69;;;10.11;79.35
6204;BME280;3135;42.602;23.468;2023-04-15T07:32:11;92036.06;;;10.09;79.51
6204;BME280;3135;42.602;23.468;2023-04-15T07:34:36;92016.81;;;10.20;78.99
6204;BME280;3135;42.602;23.468;2023-04-15T07:37:02;92044.69;;;10.51;73.86
6204;BME280;3135;42.602;23.468;2023-04-15T07:39:27;92056.00;;;10.87;72.64
6204;BME280;3135;42.602;23.468;2023-04-15T07:41:54;92032.91;;;11.00;71.82
6204;BME280;3135;42.602;23.468;2023-04-15T07:44:19;92042.44;;;11.23;70.44
6204;BME280;3135;42.602;23.468;2023-04-15T07:46:45;92062.44;;;11.35;69.33
6204;BME280;3135;42.602;23.468;2023-04-15T07:49:10;92054.44;;;11.52;68.75
6204;BME280;3135;42.602;23.468;2023-04-15T07:51:36;92050.88;;;11.83;67.63
6204;BME280;3135;42.602;23.468;2023-04-15T07:54:02;92055.63;;;11.86;66.79
6204;BME280;3135;42.602;23.468;2023-04-15T07:56:28;92068.47;;;11.49;68.05
6204;BME280;3135;42.602;23.468;2023-04-15T07:58:54;92058.53;;;11.49;67.77
6204;BME280;3135;42.602;23.468;2023-04-15T08:01:19;92075.56;;;11.71;67.46
6204;BME280;3135;42.602;23.468;2023-04-15T08:03:45;92073.09;;;12.00;68.79
6204;BME280;3135;42.602;23.468;2023-04-15T08:06:11;92069.28;;;12.27;63.69
6204;BME280;3135;42.602;23.468;2023-04-15T08:08:36;92076.88;;;12.25;64.82
6204;BME280;3135;42.602;23.468;2023-04-15T08:11:02;92069.44;;;12.22;62.81
6204;BME280;3135;42.602;23.468;2023-04-15T08:13:27;92063.47;;;12.08;66.29
6204;BME280;3135;42.602;23.468;2023-04-15T08:16:19;92072.41;;;12.56;64.23
6204;BME280;3135;42.602;23.468;2023-04-15T08:18:46;92070.97;;;12.58;64.85
6204;BME280;3135;42.602;23.468;2023-04-15T08:21:12;92071.94;;;12.45;63.62
6204;BME280;3135;42.602;23.468;2023-04-15T08:23:38;92071.97;;;12.27;65.66
6204;BME280;3135;42.602;23.468;2023-04-15T08:26:03;92079.34;;;12.57;62.39
6204;BME280;3135;42.602;23.468;2023-04-15T08:28:29;92067.38;;;12.54;63.04
6204;BME280;3135;42.602;23.468;2023-04-15T08:30:55;92068.91;;;12.72;62.57
6204;BME280;3135;42.602;23.468;2023-04-15T08:33:20;92075.06;;;13.11;59.00
6204;BME280;3135;42.602;23.468;2023-04-15T08:35:48;92070.78;;;13.19;57.85
6204;BME280;3135;42.602;23.468;2023-04-15T08:38:13;92067.75;;;13.59;58.09
6204;BME280;3135;42.602;23.468;2023-04-15T08:40:43;92081.22;;;14.00;52.78
6204;BME280;3135;42.602;23.468;2023-04-15T08:43:12;92072.00;;;14.10;54.36
6204;BME280;3135;42.602;23.468;2023-04-15T08:45:40;92079.66;;;13.99;52.56
6204;BME280;3135;42.602;23.468;2023-04-15T08:48:06;92072.06;;;14.01;54.68
6204;BME280;3135;42.602;23.468;2023-04-15T08:50:32;92076.91;;;14.50;54.64
6204;BME280;3135;42.602;23.468;2023-04-15T08:52:58;92067.44;;;14.65;50.26
6204;BME280;3135;42.602;23.468;2023-04-15T08:55:28;92042.69;;;13.96;50.90
6204;BME280;3135;42.602;23.468;2023-04-15T08:57:55;92068.59;;;14.22;50.63
6204;BME280;3135;42.602;23.468;2023-04-15T09:00:21;92033.94;;;13.66;50.73
6204;BME280;3135;42.602;23.468;2023-04-15T09:02:47;92045.84;;;13.77;51.66
6204;BME280;3135;42.602;23.468;2023-04-15T09:05:13;92050.25;;;14.03;50.28
6204;BME280;3135;42.602;23.468;2023-04-15T09:07:38;92061.81;;;14.37;48.66
6204;BME280;3135;42.602;23.468;2023-04-15T09:10:04;92059.94;;;13.95;49.43
6204;BME280;3135;42.602;23.468;2023-04-15T09:12:35;92054.44;;;13.92;48.50
6204;BME280;3135;42.602;23.468;2023-04-15T09:15:02;92038.25;;;14.21;48.34
6204;BME280;3135;42.602;23.468;2023-04-15T09:17:28;92030.41;;;14.16;49.78
6204;BME280;3135;42.602;23.468;2023-04-15T09:20:09;92041.03;;;14.46;48.86
6204;BME280;3135;42.602;23.468;2023-04-15T09:22:35;92053.44;;;14.59;47.13
6204;BME280;3135;42.602;23.468;2023-04-15T09:25:01;92045.19;;;14.22;47.02
6204;BME280;3135;42.602;23.468;2023-04-15T09:27:28;92034.31;;;14.19;47.19
6204;BME280;3135;42.602;23.468;2023-04-15T09:29:53;92059.00;;;14.54;45.42
6204;BME280;3135;42.602;23.468;2023-04-15T09:32:18;92049.03;;;14.54;45.66
6204;BME280;3135;42.602;23.468;2023-04-15T09:34:45;92029.94;;;14.80;44.97
6204;BME280;3135;42.602;23.468;2023-04-15T09:37:12;92056.09;;;14.38;45.18
6204;BME280;3135;42.602;23.468;2023-04-15T09:39:47;92051.28;;;14.31;48.23
6204;BME280;3135;42.602;23.468;2023-04-15T09:42:14;92053.00;;;14.69;47.21
6204;BME280;3135;42.602;23.468;2023-04-15T09:44:42;92059.38;;;14.65;47.92
6204;BME280;3135;42.602;23.468;2023-04-15T09:47:07;92051.59;;;14.51;47.69
6204;BME280;3135;42.602;23.468;2023-04-15T09:49:33;92040.63;;;14.56;47.87
6204;BME280;3135;42.602;23.468;2023-04-15T09:51:59;92035.81;;;14.62;46.36
6204;BME280;3135;42.602;23.468;2023-04-15T09:54:32;92040.41;;;14.61;48.01
6204;BME280;3135;42.602;23.468;2023-04-15T09:57:12;92027.50;;;14.88;45.77
6204;BME280;3135;42.602;23.468;2023-04-15T09:59:37;92005.91;;;14.63;46.60
6204;BME280;3135;42.602;23.468;2023-04-15T10:02:03;92038.50;;;15.44;44.89
6204;BME280;3135;42.602;23.468;2023-04-15T10:04:33;92030.53;;;15.35;45.06
6204;BME280;3135;42.602;23.468;2023-04-15T10:06:59;92028.41;;;15.53;44.22
6204;BME280;3135;42.602;23.468;2023-04-15T10:09:26;92049.03;;;15.61;43.64
6204;BME280;3135;42.602;23.468;2023-04-15T10:11:52;92034.34;;;15.58;43.80
6204;BME280;3135;42.602;23.468;2023-04-15T10:14:18;91986.91;;;15.17;44.17
6204;BME280;3135;42.602;23.468;2023-04-15T10:16:46;92032.22;;;15.15;44.35
6204;BME280;3135;42.602;23.468;2023-04-15T10:19:14;92009.91;;;15.39;44.30
6204;BME280;3135;42.602;23.468;2023-04-15T10:21:43;92021.31;;;15.85;43.42
6204;BME280;3135;42.602;23.468;2023-04-15T10:24:09;92022.97;;;15.90;43.33
6204;BME280;3135;42.602;23.468;2023-04-15T10:26:36;92027.25;;;15.91;42.04
6204;BME280;3135;42.602;23.468;2023-04-15T10:29:02;92006.88;;;15.65;42.85
6204;BME280;3135;42.602;23.468;2023-04-15T10:31:29;92015.50;;;16.11;43.92
6204;BME280;3135;42.602;23.468;2023-04-15T10:33:55;92012.84;;;15.99;42.02
6204;BME280;3135;42.602;23.468;2023-04-15T10:36:21;92011.44;;;16.17;40.87
6204;BME280;3135;42.602;23.468;2023-04-15T10:38:47;92003.63;;;16.56;40.57
6204;BME280;3135;42.602;23.468;2023-04-15T10:41:24;92003.78;;;15.91;41.20
6204;BME280;3135;42.602;23.468;2023-04-15T10:46:34;91984.88;;;16.03;40.85
6204;BME280;3135;42.602;23.468;2023-04-15T10:49:08;92007.84;;;16.13;41.34
6204;BME280;3135;42.602;23.468;2023-04-15T10:51:38;92011.09;;;15.91;42.21
6204;BME280;3135;42.602;23.468;2023-04-15T10:56:50;92009.00;;;15.23;41.74
6204;BME280;3135;42.602;23.468;2023-04-15T10:59:16;92004.19;;;15.28;42.16
6204;BME280;3135;42.602;23.468;2023-04-15T11:01:57;91996.78;;;15.38;42.39
6204;BME280;3135;42.602;23.468;2023-04-15T11:15:42;91940.81;;;16.40;39.27
6204;BME280;3135;42.602;23.468;2023-04-15T11:18:21;92011.75;;;17.00;38.92
6204;BME280;3135;42.602;23.468;2023-04-15T11:20:49;91990.22;;;16.88;38.19
6204;BME280;3135;42.602;23.468;2023-04-15T11:23:40;92009.75;;;17.28;38.07
6204;BME280;3135;42.602;23.468;2023-04-15T11:26:11;91997.00;;;16.81;39.74
6204;BME280;3135;42.602;23.468;2023-04-15T11:28:46;92007.50;;;16.71;39.08
6204;BME280;3135;42.602;23.468;2023-04-15T11:31:17;92016.78;;;16.57;38.33
6204;BME280;3135;42.602;23.468;2023-04-15T11:36:23;92008.44;;;17.06;37.99
6204;BME280;3135;42.602;23.468;2023-04-15T11:38:48;91998.94;;;16.53;39.50
6204;BME280;3135;42.602;23.468;2023-04-15T11:41:14;91996.16;;;16.65;38.69
6204;BME280;3135;42.602;23.468;2023-04-15T11:43:40;92005.38;;;16.76;38.58
6204;BME280;3135;42.602;23.468;2023-04-15T11:46:05;91994.34;;;16.53;38.99
6204;BME280;3135;42.602;23.468;2023-04-15T11:48:33;91996.53;;;16.07;39.33
6204;BME280;3135;42.602;23.468;2023-04-15T11:51:05;91994.44;;;16.57;39.04
6204;BME280;3135;42.602;23.468;2023-04-15T11:53:49;92008.75;;;16.73;37.55
6204;BME280;3135;42.602;23.468;2023-04-15T11:56:23;91990.03;;;17.12;37.71
6204;BME280;3135;42.602;23.468;2023-04-15T11:58:58;91983.53;;;17.13;37.34
6204;BME280;3135;42.602;23.468;2023-04-15T12:01:50;91993.00;;;16.91;37.54
6204;BME280;3135;42.602;23.468;2023-04-15T12:04:17;91988.66;;;17.18;38.25
6204;BME280;3135;42.602;23.468;2023-04-15T12:06:47;91991.59;;;17.45;36.95
6204;BME280;3135;42.602;23.468;2023-04-15T12:09:17;91998.44;;;16.63;37.15
6204;BME280;3135;42.602;23.468;2023-04-15T12:11:49;91976.84;;;16.19;37.91
6204;BME280;3135;42.602;23.468;2023-04-15T12:14:31;91998.78;;;16.61;37.75
6204;BME280;3135;42.602;23.468;2023-04-15T12:17:04;91996.53;;;16.35;37.94
6204;BME280;3135;42.602;23.468;2023-04-15T12:19:40;91974.56;;;16.49;37.70
6204;BME280;3135;42.602;23.468;2023-04-15T12:22:15;91994.78;;;16.27;37.56
6204;BME280;3135;42.602;23.468;2023-04-15T12:24:42;91991.09;;;16.48;37.04
6204;BME280;3135;42.602;23.468;2023-04-15T12:27:12;91990.41;;;16.95;37.40
6204;BME280;3135;42.602;23.468;2023-04-15T12:29:40;91988.47;;;16.79;37.00
6204;BME280;3135;42.602;23.468;2023-04-15T12:32:16;91944.59;;;16.82;36.99
6204;BME280;3135;42.602;23.468;2023-04-15T12:34:51;91971.81;;;17.41;36.69
6204;BME280;3135;42.602;23.468;2023-04-15T12:37:17;91995.19;;;17.68;35.25
6204;BME280;3135;42.602;23.468;2023-04-15T12:39:45;91994.69;;;17.62;35.81
6204;BME280;3135;42.602;23.468;2023-04-15T12:42:13;91990.72;;;17.92;34.73
6204;BME280;3135;42.602;23.468;2023-04-15T12:44:39;91987.84;;;17.49;35.04
6204;BME280;3135;42.602;23.468;2023-04-15T12:47:06;91993.09;;;17.10;35.16
6204;BME280;3135;42.602;23.468;2023-04-15T12:49:32;92004.44;;;16.84;35.54
6204;BME280;3135;42.602;23.468;2023-04-15T12:51:58;92005.47;;;17.27;35.83
6204;BME280;3135;42.602;23.468;2023-04-15T12:54:25;92009.44;;;17.65;35.72
6204;BME280;3135;42.602;23.468;2023-04-15T12:56:52;91992.41;;;17.80;35.11
6204;BME280;3135;42.602;23.468;2023-04-15T12:59:17;92008.78;;;17.87;35.08
6204;BME280;3135;42.602;23.468;2023-04-15T13:01:43;92004.63;;;17.58;34.48
6204;BME280;3135;42.602;23.468;2023-04-15T13:04:09;92002.94;;;16.87;35.59
6204;BME280;3135;42.602;23.468;2023-04-15T13:06:35;92002.06;;;16.83;35.71
6204;BME280;3135;42.602;23.468;2023-04-15T13:09:01;92008.00;;;17.20;35.58
6204;BME280;3135;42.602;23.468;2023-04-15T13:11:28;92001.78;;;16.88;34.80
6204;BME280;3135;42.602;23.468;2023-04-15T13:13:55;91993.56;;;16.53;34.60
6204;BME280;3135;42.602;23.468;2023-04-15T13:16:22;91996.50;;;16.76;34.61
6204;BME280;3135;42.602;23.468;2023-04-15T13:18:48;91988.00;;;16.61;34.53
6204;BME280;3135;42.602;23.468;2023-04-15T13:21:13;91996.84;;;16.90;33.15
6204;BME280;3135;42.602;23.468;2023-04-15T13:23:40;91971.25;;;17.00;34.11
6204;BME280;3135;42.602;23.468;2023-04-15T13:26:06;91962.28;;;16.96;35.62
6204;BME280;3135;42.602;23.468;2023-04-15T13:28:31;91981.94;;;16.36;35.56
6204;BME280;3135;42.602;23.468;2023-04-15T13:30:57;91982.44;;;16.26;35.82
6204;BME280;3135;42.602;23.468;2023-04-15T13:33:22;91982.13;;;16.44;36.44